ESKM

Mora Airport

Sweden
METAR ESKM 212150Z AUTO 32009KT 9999 FEW053/// OVC100/// 11/05 Q1000
Observed Flight Rules
Jun-21 @ 21:50 UTC (12 minutes ago) Visual Flight Rules
Wind Visibility Clouds
320° at 9 knots 10,000+ meters
  • Few at 5,300' AGL
  • Overcast at 10,000' AGL
Temperatures Readings
Current 11°C / 52°F
Dewpoint 5°C / 41°F
Humidity 67%
Altimeter 29.53" Hg
Pressure 1000 hPa
Elevation 193
METAR ESKM 212150Z AUTO 32009KT 9999 FEW053/// OVC100/// 11/05 Q1000
Observed Flight Rules
Jun-21 @ 21:50 UTC
(12 minutes ago)
VFR
Wind Visibility
320° at 9 knots 10,000+ meters
Clouds
  • Few at 5,300' AGL
  • Overcast at 10,000' AGL
Temperature Dewpoint
11°C / 52°F 5°C / 41°F
Humidity Altimeter Pressure
67% 29.53" Hg 1000 hPa